Time;durP1;ratioP1;P1;durP2;ratioP2;P2;SDS_P1;SDS_P2;PMS_P1;PMS_P2;Temp;Humidity;BMP_temperature;BMP_pressure;BME280_temperature;BME280_humidity;BME280_pressure;Samples;Min_cycle;Max_cycle;Signal;HPM_P1;HPM_P2
2024/01/14 00:00:45;;;;;;;28.73;16.25;;;-0.80;99.90;;;;;;5065573;28;20024;-53
2024/01/14 00:03:12;;;;;;;32.42;16.00;;;-0.80;99.90;;;;;;5066064;28;20027;-51
2024/01/14 00:05:38;;;;;;;28.45;15.88;;;-0.80;99.90;;;;;;5065133;28;20029;-49
2024/01/14 00:08:04;;;;;;;30.65;14.52;;;-0.80;99.90;;;;;;5066287;28;20644;-51
2024/01/14 00:10:29;;;;;;;29.60;16.70;;;-0.80;99.90;;;;;;5066043;28;20028;-54
2024/01/14 00:12:55;;;;;;;28.33;16.35;;;-0.80;99.90;;;;;;5065891;28;20483;-55
2024/01/14 00:15:21;;;;;;;29.52;17.30;;;-0.80;99.90;;;;;;5065428;28;20027;-52
2024/01/14 00:17:46;;;;;;;27.10;15.07;;;-0.80;99.90;;;;;;5047687;28;20121;-50
2024/01/14 00:20:12;;;;;;;29.00;15.98;;;-0.80;99.90;;;;;;5065910;28;20435;-54
2024/01/14 00:22:38;;;;;;;30.98;15.60;;;-0.80;99.90;;;;;;5065593;28;20027;-53
2024/01/14 00:25:04;;;;;;;33.67;18.17;;;-0.80;99.90;;;;;;5065769;28;20036;-52
2024/01/14 16:40:22;;;;;;;56.85;21.33;;;1.00;1.00;;;;;;5100683;27;20113;-54
2024/01/14 16:42:48;;;;;;;63.15;23.60;;;0.90;1.00;;;;;;5104151;28;20101;-52
2024/01/14 16:45:14;;;;;;;131.07;36.93;;;1.00;1.00;;;;;;5103072;28;20032;-49
2024/01/14 16:47:39;;;;;;;57.38;26.52;;;1.10;99.90;;;;;;5103284;28;20039;-51
2024/01/14 16:50:05;;;;;;;48.63;23.85;;;1.00;99.90;;;;;;5103902;28;20027;-51
2024/01/14 16:52:31;;;;;;;51.30;22.75;;;1.00;99.90;;;;;;5102530;28;20178;-51
2024/01/14 16:54:57;;;;;;;46.10;24.17;;;1.10;99.90;;;;;;5102593;28;20111;-52
2024/01/14 16:57:22;;;;;;;40.08;19.88;;;1.10;99.90;;;;;;5103311;28;20523;-53
2024/01/14 16:59:48;;;;;;;46.85;21.85;;;1.10;99.90;;;;;;5103590;28;20040;-52
2024/01/14 17:02:14;;;;;;;46.78;20.70;;;1.10;99.90;;;;;;5104211;28;20069;-53
2024/01/14 17:04:40;;;;;;;44.13;19.98;;;1.10;99.90;;;;;;5103355;28;20523;-55
2024/01/14 17:07:06;;;;;;;45.53;19.70;;;1.10;99.90;;;;;;5102246;28;20135;-57
2024/01/14 17:09:32;;;;;;;44.30;18.95;;;1.20;99.90;;;;;;5103175;28;20027;-50
2024/01/14 17:11:57;;;;;;;38.20;19.20;;;1.20;99.90;;;;;;5102371;28;20513;-51
2024/01/14 17:14:24;;;;;;;37.15;18.65;;;1.20;99.90;;;;;;5103661;28;20059;-49
2024/01/14 17:16:50;;;;;;;36.30;16.65;;;1.20;99.90;;;;;;5103866;28;20034;-51
2024/01/14 17:19:15;;;;;;;36.50;18.35;;;1.30;99.90;;;;;;5103778;28;20032;-54
2024/01/14 17:21:41;;;;;;;36.95;17.23;;;1.30;99.90;;;;;;5103462;28;20475;-51
2024/01/14 17:24:07;;;;;;;43.28;19.67;;;1.20;99.90;;;;;;5103140;28;20024;-50
2024/01/14 17:26:32;;;;;;;37.78;18.20;;;1.20;99.90;;;;;;5102811;28;20020;-50
2024/01/14 17:28:58;;;;;;;31.92;16.40;;;1.30;45.10;;;;;;5101605;28;20020;-52
2024/01/14 17:31:24;;;;;;;35.17;15.68;;;1.30;1.00;;;;;;5102714;28;20019;-53
2024/01/14 17:33:52;;;;;;;27.50;14.50;;;1.30;1.00;;;;;;5102675;28;20037;-52
2024/01/14 17:36:20;;;;;;;37.05;16.33;;;1.30;8.50;;;;;;5103527;28;20043;-52
2024/01/14 17:38:48;;;;;;;31.15;15.15;;;1.30;13.30;;;;;;5103111;28;20513;-50
2024/01/14 17:41:14;;;;;;;33.35;15.63;;;1.30;1.00;;;;;;5100951;28;20468;-50
2024/01/14 17:43:40;;;;;;;29.55;14.85;;;1.30;1.00;;;;;;5102324;28;20028;-50
2024/01/14 17:46:06;;;;;;;34.35;14.93;;;1.30;1.00;;;;;;5102224;28;20026;-48
2024/01/14 17:48:32;;;;;;;36.35;17.27;;;1.40;1.00;;;;;;5101964;28;20039;-55
2024/01/14 17:51:03;;;;;;;37.42;16.73;;;1.30;1.00;;;;;;5091444;28;20024;-52
2024/01/14 17:53:29;;;;;;;34.78;16.30;;;1.30;1.00;;;;;;5081439;28;20032;-51
2024/01/14 17:55:55;;;;;;;37.55;17.55;;;1.30;1.00;;;;;;5086175;28;20478;-48
2024/01/14 17:58:21;;;;;;;32.28;15.63;;;1.30;1.00;;;;;;5087144;28;20040;-51
2024/01/14 18:00:47;;;;;;;31.88;16.20;;;1.30;1.00;;;;;;5087084;28;20021;-51
2024/01/14 18:03:13;;;;;;;31.52;15.23;;;1.30;1.00;;;;;;5087547;28;21129;-51
2024/01/14 18:05:41;;;;;;;33.67;17.30;;;1.30;42.30;;;;;;5087101;28;20121;-51
2024/01/14 18:08:10;;;;;;;32.50;16.38;;;1.30;1.00;;;;;;5086622;28;20024;-53
2024/01/14 18:10:40;;;;;;;36.75;16.23;;;1.30;1.00;;;;;;5085874;28;20028;-51
2024/01/14 18:13:06;;;;;;;36.15;16.80;;;1.30;54.40;;;;;;5087407;28;20111;-49
2024/01/14 18:15:32;;;;;;;30.93;14.63;;;1.30;1.00;;;;;;5086214;28;20213;-52
2024/01/14 18:18:02;;;;;;;29.52;14.80;;;1.30;1.00;;;;;;5087785;28;20103;-49
2024/01/14 18:20:28;;;;;;;33.00;15.20;;;1.30;1.00;;;;;;5087188;28;20028;-52
2024/01/14 18:22:54;;;;;;;32.10;14.77;;;1.40;1.00;;;;;;5087556;28;20027;-52
2024/01/14 18:25:20;;;;;;;29.70;14.18;;;1.30;1.00;;;;;;5086485;28;20574;-49
2024/01/14 18:27:46;;;;;;;32.38;14.57;;;1.30;1.00;;;;;;5087577;28;20015;-53
2024/01/14 18:30:13;;;;;;;30.20;15.73;;;1.40;1.00;;;;;;5087597;28;20495;-51
2024/01/14 18:32:39;;;;;;;32.67;14.98;;;1.30;1.00;;;;;;5086016;28;20024;-50
2024/01/14 18:35:05;;;;;;;35.55;15.95;;;1.30;1.00;;;;;;5086725;28;20035;-51
2024/01/14 18:37:31;;;;;;;34.50;15.83;;;1.40;1.00;;;;;;5085615;28;20020;-53
2024/01/14 18:39:56;;;;;;;37.17;16.08;;;1.30;13.90;;;;;;5087085;28;20093;-49
2024/01/14 18:42:22;;;;;;;39.60;18.02;;;1.30;16.10;;;;;;5086792;28;20127;-50
2024/01/14 18:44:48;;;;;;;38.80;18.27;;;1.30;39.60;;;;;;5087022;28;20028;-52
2024/01/14 18:47:13;;;;;;;41.50;20.52;;;1.30;70.60;;;;;;5087181;28;20032;-50
2024/01/14 18:49:39;;;;;;;42.90;19.65;;;1.30;99.90;;;;;;5085081;28;20827;-53
2024/01/14 18:52:14;;;;;;;43.75;21.25;;;1.20;99.90;;;;;;5087305;28;20035;-53
2024/01/14 18:54:41;;;;;;;49.60;21.60;;;1.20;99.90;;;;;;5087039;28;20031;-51
2024/01/14 18:57:07;;;;;;;44.60;19.15;;;1.20;99.90;;;;;;5086597;28;20451;-52
2024/01/14 18:59:32;;;;;;;41.78;19.80;;;1.20;99.90;;;;;;5085520;28;20667;-50
2024/01/14 19:01:58;;;;;;;43.38;21.38;;;1.20;99.90;;;;;;5085893;28;20016;-52
2024/01/14 19:04:24;;;;;;;47.75;20.92;;;1.20;99.90;;;;;;5060473;28;20040;-50
2024/01/14 19:06:50;;;;;;;48.13;22.30;;;1.20;99.90;;;;;;5084319;28;20020;-52
2024/01/14 19:09:16;;;;;;;40.60;19.10;;;1.20;99.90;;;;;;5086589;28;20027;-51
2024/01/14 19:11:41;;;;;;;42.53;21.60;;;1.20;99.90;;;;;;5086380;28;20031;-52
2024/01/14 19:14:07;;;;;;;46.58;20.00;;;1.10;99.90;;;;;;5086658;28;20024;-50
2024/01/14 19:16:37;;;;;;;50.00;22.48;;;1.20;99.90;;;;;;5086311;28;20047;-51
2024/01/14 19:19:04;;;;;;;49.63;21.77;;;1.10;99.90;;;;;;5086245;28;20040;-53
2024/01/14 19:21:31;;;;;;;54.55;22.73;;;1.10;99.90;;;;;;5085991;28;20039;-53
2024/01/14 19:23:58;;;;;;;54.72;22.92;;;1.20;99.90;;;;;;5086850;28;20032;-52
2024/01/14 19:26:25;;;;;;;;;;;1.10;99.90;;;;;;5086353;28;20036;-51
2024/01/14 19:28:51;;;;;;;49.80;21.37;;;1.10;99.90;;;;;;5083093;28;19959;-52
2024/01/14 19:31:17;;;;;;;57.22;23.52;;;1.10;99.90;;;;;;5086446;28;20324;-52
2024/01/14 19:33:43;;;;;;;75.70;27.33;;;1.10;99.90;;;;;;5085123;28;20027;-53
2024/01/14 19:36:08;;;;;;;73.68;26.70;;;1.10;99.90;;;;;;5086409;28;20064;-51
2024/01/14 19:38:35;;;;;;;79.13;26.52;;;1.10;98.20;;;;;;5084254;28;20131;-51
2024/01/14 19:41:01;;;;;;;89.40;29.88;;;1.20;93.90;;;;;;5081083;28;20127;-52
2024/01/14 19:43:27;;;;;;;82.28;28.33;;;1.10;86.50;;;;;;5083195;28;20116;-53
2024/01/14 19:45:54;;;;;;;61.60;22.90;;;1.10;98.90;;;;;;5084793;28;20050;-50
2024/01/14 19:48:20;;;;;;;46.57;19.67;;;1.20;1.00;;;;;;5085897;28;20491;-52
2024/01/14 19:50:46;;;;;;;51.17;19.25;;;1.20;1.00;;;;;;5084512;28;20077;-54
2024/01/14 19:53:12;;;;;;;62.20;23.13;;;1.20;1.00;;;;;;5086065;28;20028;-50
2024/01/14 19:55:38;;;;;;;53.00;20.40;;;1.20;1.00;;;;;;5085528;28;20714;-55
2024/01/14 19:58:05;;;;;;;70.00;26.38;;;1.20;1.00;;;;;;5086824;28;20028;-52
2024/01/14 20:00:31;;;;;;;;;;;1.10;1.00;;;;;;5084658;28;20119;-54
2024/01/14 20:02:58;;;;;;;56.90;24.83;;;1.10;1.00;;;;;;5086200;28;19966;-53
2024/01/14 20:05:24;;;;;;;44.83;21.05;;;1.10;99.90;;;;;;5067334;28;20024;-50
2024/01/14 20:07:50;;;;;;;40.28;19.40;;;1.10;99.90;;;;;;5085636;28;20039;-50
2024/01/14 20:10:18;;;;;;;52.33;21.58;;;1.10;38.40;;;;;;5084669;28;20032;-51
2024/01/14 20:12:45;;;;;;;54.33;23.95;;;1.10;31.90;;;;;;5083955;28;20032;-53
2024/01/14 20:15:12;;;;;;;53.20;22.25;;;1.10;51.60;;;;;;5085270;28;20055;-53
2024/01/14 20:17:37;;;;;;;59.45;22.15;;;1.10;99.90;;;;;;5085383;28;20198;-52
2024/01/14 20:20:04;;;;;;;49.00;21.83;;;1.10;92.60;;;;;;5084894;28;20111;-50
2024/01/14 20:22:29;;;;;;;45.08;21.92;;;1.10;78.10;;;;;;5085101;28;20032;-53
2024/01/14 20:24:57;;;;;;;53.83;23.67;;;1.00;99.90;;;;;;5065345;28;20084;-51
2024/01/14 20:27:23;;;;;;;49.63;22.33;;;1.00;99.90;;;;;;5065186;28;20041;-51
2024/01/14 20:29:49;;;;;;;53.13;22.23;;;1.00;95.90;;;;;;5064345;28;20138;-51
2024/01/14 20:32:15;;;;;;;40.33;18.23;;;1.10;1.00;;;;;;5065679;28;20379;-49
2024/01/14 20:34:41;;;;;;;46.58;20.90;;;1.10;1.00;;;;;;5085394;28;20043;-52
2024/01/14 20:37:08;;;;;;;47.92;19.55;;;1.10;1.00;;;;;;5084153;28;20454;-51
2024/01/14 20:39:34;;;;;;;53.00;22.00;;;1.10;1.00;;;;;;5084407;28;20101;-54
2024/01/14 20:42:02;;;;;;;64.45;26.65;;;1.00;1.00;;;;;;5087092;28;20441;-53
2024/01/14 20:44:28;;;;;;;48.83;22.50;;;1.00;33.20;;;;;;5086678;28;20063;-51
2024/01/14 20:46:54;;;;;;;48.90;21.65;;;1.00;64.20;;;;;;5086059;28;20441;-50
2024/01/14 20:49:20;;;;;;;49.30;21.30;;;1.00;99.90;;;;;;5085514;28;20028;-53
2024/01/14 20:51:45;;;;;;;47.65;20.92;;;1.00;99.90;;;;;;5082493;28;20027;-51
2024/01/14 20:54:12;;;;;;;57.75;23.20;;;1.00;99.90;;;;;;5084318;28;20077;-51
2024/01/14 20:56:38;;;;;;;69.40;27.55;;;1.00;99.90;;;;;;5085682;28;20131;-51
2024/01/14 20:59:03;;;;;;;47.53;20.92;;;1.00;99.90;;;;;;5085494;28;20108;-52
2024/01/14 21:01:36;;;;;;;52.30;21.35;;;1.00;99.90;;;;;;5085569;28;20538;-51
2024/01/14 21:04:02;;;;;;;59.33;21.95;;;1.00;90.30;;;;;;5085779;28;20468;-49
2024/01/14 21:06:31;;;;;;;58.33;20.48;;;1.00;93.40;;;;;;5084076;28;20024;-51
2024/01/14 21:08:57;;;;;;;57.30;22.05;;;1.00;1.00;;;;;;5084348;28;20036;-53
2024/01/14 21:11:24;;;;;;;51.88;23.15;;;1.00;99.90;;;;;;5085161;28;20032;-49
2024/01/14 21:13:51;;;;;;;47.85;22.75;;;1.00;99.90;;;;;;5086712;28;20032;-52
2024/01/14 21:16:17;;;;;;;47.38;22.40;;;1.00;85.10;;;;;;5084817;28;20042;-53
2024/01/14 21:18:42;;;;;;;58.20;24.42;;;1.00;99.90;;;;;;5086081;28;20044;-52
2024/01/14 21:21:09;;;;;;;56.42;23.88;;;0.90;99.90;;;;;;5084105;28;20491;-50
2024/01/14 21:23:36;;;;;;;;;;;0.90;99.90;;;;;;5084718;28;20035;-52
2024/01/14 21:26:02;;;;;;;52.15;22.48;;;0.90;99.90;;;;;;5086873;28;19908;-50
2024/01/14 21:28:28;;;;;;;49.28;21.95;;;0.90;99.90;;;;;;5089506;28;20035;-53
2024/01/14 21:30:54;;;;;;;45.08;19.33;;;0.80;99.90;;;;;;5089804;28;20031;-50
2024/01/14 21:33:21;;;;;;;44.78;19.02;;;0.90;99.90;;;;;;5089515;28;20483;-52
2024/01/14 21:35:47;;;;;;;37.88;17.17;;;0.90;99.90;;;;;;5089405;28;20048;-51
2024/01/14 21:38:13;;;;;;;33.13;16.63;;;0.90;99.90;;;;;;5089122;28;20491;-50
2024/01/14 21:40:39;;;;;;;37.25;16.63;;;0.90;7.90;;;;;;5089457;28;20269;-52
2024/01/14 21:43:04;;;;;;;35.97;17.63;;;0.90;1.00;;;;;;5089325;28;20877;-50
2024/01/14 21:45:30;;;;;;;39.28;16.92;;;0.80;93.40;;;;;;5088338;28;20556;-51
2024/01/14 21:47:56;;;;;;;33.03;15.73;;;0.80;15.40;;;;;;5088337;28;20028;-53
2024/01/14 21:50:22;;;;;;;35.67;15.75;;;0.90;1.00;;;;;;5088691;28;20030;-51
2024/01/14 21:52:48;;;;;;;32.70;15.50;;;0.90;1.00;;;;;;5088187;28;20115;-50
2024/01/14 21:55:14;;;;;;;28.55;13.65;;;0.90;1.00;;;;;;5085718;28;20297;-53
2024/01/14 21:57:39;;;;;;;28.55;14.13;;;0.90;1.00;;;;;;5087006;28;20024;-54
2024/01/14 22:00:09;;;;;;;35.30;15.13;;;0.90;1.00;;;;;;5086535;28;20047;-50
2024/01/14 22:02:34;;;;;;;27.63;14.15;;;0.90;1.00;;;;;;5088248;28;20141;-50
2024/01/14 22:05:00;;;;;;;30.52;14.75;;;0.90;99.90;;;;;;5088050;28;20482;-51
2024/01/14 22:07:26;;;;;;;34.30;16.23;;;0.90;99.90;;;;;;5087965;28;20109;-53
2024/01/14 22:09:51;;;;;;;30.80;14.43;;;0.90;99.90;;;;;;5088047;28;20502;-52
2024/01/14 22:12:17;;;;;;;33.30;14.77;;;0.90;99.90;;;;;;5087748;28;20063;-49
2024/01/14 22:14:43;;;;;;;31.90;15.38;;;0.90;99.90;;;;;;5087590;28;20083;-52
2024/01/14 22:17:09;;;;;;;31.05;14.75;;;0.90;1.00;;;;;;5086515;28;20075;-52
